| time (UTC) | temp C | wind direction | speed KPH | gust KPH | rain 1hr cm | rain 24hr cm | rain mn cm | humidity % | barometer mb |
| 20260508121343 | 13 | 329 | 3.2 | 14.5 | 0.00 | 0.00 | 0.00 | 33 | 1025.6 |
| 20260508120442 | 13 | 356 | 1.6 | 8.0 | 0.00 | 0.00 | 0.00 | 34 | 1025.5 |
| 20260508115543 | 12 | 331 | 1.6 | 14.5 | 0.00 | 0.00 | 0.00 | 34 | 1025.7 |
| 20260508114643 | 13 | 339 | 1.6 | 11.3 | 0.00 | 0.00 | 0.00 | 34 | 1025.6 |
| 20260508113743 | 13 | 341 | 1.6 | 11.3 | 0.00 | 0.00 | 0.00 | 34 | 1025.6 |
| 20260508112843 | 13 | 342 | 1.6 | 11.3 | 0.00 | 0.00 | 0.00 | 35 | 1025.6 |
| 20260508111943 | 12 | 332 | 3.2 | 14.5 | 0.00 | 0.00 | 0.00 | 39 | 1025.6 |
| 20260508111042 | 12 | 322 | 3.2 | 19.3 | 0.00 | 0.00 | 0.00 | 35 | 1025.7 |
| 20260508110143 | 12 | 341 | 1.6 | 19.3 | 0.00 | 0.00 | 0.00 | 39 | 1025.5 |
| 20260508105455 | 12 | 336 | 1.6 | 19.3 | 0.00 | 0.00 | 0.00 | 38 | 1025.6 |
| 20260508104343 | 11 | 256 | 1.6 | 11.3 | 0.00 | 0.00 | 0.00 | 39 | 1025.5 |
| 20260508103442 | 11 | 332 | 3.2 | 22.5 | 0.00 | 0.00 | 0.00 | 39 | 1025.4 |
| 20260508102543 | 11 | 344 | 4.8 | 22.5 | 0.00 | 0.00 | 0.00 | 39 | 1025.4 |
| 20260508101643 | 12 | 333 | 4.8 | 17.7 | 0.00 | 0.00 | 0.00 | 40 | 1025.5 |
| 20260508100743 | 12 | 323 | 1.6 | 16.1 | 0.00 | 0.00 | 0.00 | 41 | 1025.4 |
| 20260508095843 | 12 | 11 | 3.2 | 16.1 | 0.00 | 0.00 | 0.00 | 41 | 1025.4 |
| 20260508094943 | 11 | 347 | 3.2 | 17.7 | 0.00 | 0.00 | 0.00 | 41 | 1025.3 |
| 20260508094042 | 11 | 315 | 3.2 | 16.1 | 0.00 | 0.00 | 0.00 | 42 | 1025.3 |
| 20260508093356 | 11 | 335 | 1.6 | 11.3 | 0.00 | 0.00 | 0.00 | 42 | 1025.2 |
| 20260508092243 | 11 | 340 | 3.2 | 24.1 | 0.00 | 0.00 | 0.00 | 45 | 1025.1 |
| 20260508091343 | 11 | 335 | 3.2 | 14.5 | 0.00 | 0.00 | 0.00 | 44 | 1025.1 |
| 20260508090442 | 10 | 316 | 1.6 | 14.5 | 0.00 | 0.00 | 0.00 | 45 | 1025.1 |
| 20260508085543 | 10 | 331 | 3.2 | 17.7 | 0.00 | 0.00 | 0.00 | 44 | 1025.2 |
| 20260508084643 | 11 | 343 | 4.8 | 19.3 | 0.00 | 0.00 | 0.00 | 48 | 1025.0 |
| 20260508083742 | 10 | 325 | 1.6 | 12.9 | 0.00 | 0.00 | 0.00 | 46 | 1024.9 |
| 20260508082842 | 10 | 339 | 3.2 | 12.9 | 0.00 | 0.00 | 0.00 | 47 | 1024.9 |
| 20260508081943 | 10 | 326 | 3.2 | 20.9 | 0.00 | 0.00 | 0.00 | 48 | 1024.8 |
| 20260508081043 | 10 | 337 | 3.2 | 16.1 | 0.00 | 0.00 | 0.00 | 49 | 1024.7 |
| 20260508080142 | 10 | 335 | 4.8 | 17.7 | 0.00 | 0.00 | 0.00 | 50 | 1024.7 |
| 20260508075243 | 9 | 315 | 3.2 | 19.3 | 0.00 | 0.00 | 0.00 | 50 | 1024.6 |
| 20260508074342 | 9 | 315 | 1.6 | 11.3 | 0.00 | 0.00 | 0.00 | 53 | 1024.5 |
| 20260508073656 | 9 | 334 | 3.2 | 24.1 | 0.00 | 0.00 | 0.00 | 55 | 1024.5 |
| 20260508072754 | 8 | 324 | 1.6 | 8.0 | 0.00 | 0.00 | 0.00 | 57 | 1024.4 |
| 20260508071642 | 8 | 0 | 0.0 | 6.4 | 0.00 | 0.00 | 0.00 | 61 | 1024.3 |
| 20260508070743 | 8 | 0 | 0.0 | 9.7 | 0.00 | 0.00 | 0.00 | 60 | 1024.3 |
| 20260508070055 | 8 | 294 | 1.6 | 4.8 | 0.00 | 0.00 | 0.00 | 61 | 1024.2 |
| 20260508065153 | 7 | 325 | 3.2 | 19.3 | 0.00 | 0.00 | 0.00 | 61 | 1024.1 |
| 20260508064255 | 7 | 294 | 1.6 | 14.5 | 0.00 | 0.00 | 0.00 | 64 | 1024.0 |
| 20260508063142 | 7 | 0 | 0.0 | 3.2 | 0.00 | 0.00 | 0.00 | 70 | 1024.0 |
| 20260508062243 | 6 | 232 | 1.6 | 8.0 | 0.00 | 0.00 | 0.00 | 71 | 1023.9 |
| 20260508061552 | 6 | 0 | 0.0 | 8.0 | 0.00 | 0.00 | 0.00 | 72 | 1023.8 |
| 20260508060442 | 6 | 0 | 0.0 | 1.6 | 0.00 | 0.00 | 0.00 | 73 | 1023.6 |
| 20260508055542 | 5 | 0 | 0.0 | 4.8 | 0.00 | 0.00 | 0.00 | 75 | 1023.6 |
| 20260508054642 | 5 | 0 | 0.0 | 0.0 | 0.00 | 0.00 | 0.00 | 76 | 1023.5 |
| 20260508053743 | 5 | 0 | 0.0 | 1.6 | 0.00 | 0.00 | 0.00 | 78 | 1023.5 |
| 20260508052842 | 4 | 0 | 0.0 | 3.2 | 0.00 | 0.00 | 0.00 | 79 | 1023.4 |
| 20260508051942 | 4 | 0 | 0.0 | 4.8 | 0.00 | 0.00 | 0.00 | 79 | 1023.2 |
| 20260508051254 | 4 | 0 | 0.0 | 4.8 | 0.00 | 0.00 | 0.00 | 81 | 1023.3 |
| 20260508050356 | 3 | 0 | 0.0 | 3.2 | 0.00 | 0.00 | 0.00 | 81 | 1023.2 |
| 20260508045242 | 3 | 0 | 0.0 | 0.0 | 0.00 | 0.00 | 0.00 | 83 | 1023.1 |
| 20260508044342 | 3 | 0 | 0.0 | 0.0 | 0.00 | 0.00 | 0.00 | 83 | 1023.1 |
| 20260508043443 | 3 | 0 | 0.0 | 0.0 | 0.00 | 0.00 | 0.00 | 84 | 1022.9 |
| 20260508042543 | 3 | 0 | 0.0 | 3.2 | 0.00 | 0.00 | 0.00 | 84 | 1022.9 |
| 20260508041642 | 2 | 0 | 0.0 | 3.2 | 0.00 | 0.00 | 0.00 | 85 | 1022.8 |
| 20260508040742 | 2 | 0 | 0.0 | 3.2 | 0.00 | 0.00 | 0.00 | 86 | 1022.8 |
| 20260508040052 | 2 | 0 | 0.0 | 3.2 | 0.00 | 0.00 | 0.00 | 87 | 1022.7 |
| 20260508034942 | 2 | 0 | 0.0 | 11.3 | 0.00 | 0.00 | 0.00 | 88 | 1022.4 |
| 20260508034043 | 1 | 0 | 0.0 | 6.4 | 0.00 | 0.00 | 0.00 | 89 | 1022.4 |
| 20260508033142 | 1 | 0 | 0.0 | 3.2 | 0.00 | 0.00 | 0.00 | 91 | 1022.2 |
| 20260508032242 | 1 | 0 | 0.0 | 0.0 | 0.00 | 0.00 | 0.00 | 91 | 1022.0 |
| 20260508031554 | 0 | 0 | 0.0 | 0.0 | 0.00 | 0.00 | 0.00 | 91 | 1022.0 |
| 20260508030442 | 0 | 0 | 0.0 | 0.0 | 0.00 | 0.00 | 0.00 | 90 | 1021.9 |
| 20260508025542 | 0 | 0 | 0.0 | 0.0 | 0.00 | 0.00 | 0.00 | 89 | 1021.8 |
| 20260508024643 | 0 | 0 | 0.0 | 0.0 | 0.00 | 0.00 | 0.00 | 89 | 1021.7 |
| 20260508023743 | 0 | 0 | 0.0 | 0.0 | 0.00 | 0.00 | 0.00 | 89 | 1021.6 |
| 20260508022842 | 0 | 0 | 0.0 | 0.0 | 0.00 | 0.00 | 0.00 | 89 | 1021.4 |
| 20260508021943 | 0 | 0 | 0.0 | 0.0 | 0.00 | 0.00 | 0.00 | 88 | 1021.4 |
| 20260508021043 | 0 | 0 | 0.0 | 0.0 | 0.00 | 0.00 | 0.00 | 87 | 1021.3 |
| 20260508020143 | 0 | 0 | 0.0 | 0.0 | 0.00 | 0.00 | 0.00 | 86 | 1021.3 |
| 20260508015242 | 0 | 0 | 0.0 | 0.0 | 0.00 | 0.00 | 0.00 | 86 | 1021.1 |
| 20260508014342 | 0 | 0 | 0.0 | 0.0 | 0.00 | 0.00 | 0.00 | 86 | 1021.0 |
| 20260508013442 | 0 | 0 | 0.0 | 0.0 | 0.00 | 0.00 | 0.00 | 85 | 1020.9 |
| 20260508012542 | 1 | 0 | 0.0 | 0.0 | 0.00 | 0.00 | 0.00 | 85 | 1020.9 |
| 20260508011642 | 1 | 0 | 0.0 | 0.0 | 0.00 | 0.00 | 0.00 | 85 | 1020.7 |
| 20260508010743 | 1 | 0 | 0.0 | 0.0 | 0.00 | 0.00 | 0.00 | 85 | 1020.7 |
| 20260508005842 | 1 | 0 | 0.0 | 4.8 | 0.00 | 0.00 | 0.00 | 84 | 1020.5 |
| 20260508004942 | 1 | 0 | 0.0 | 0.0 | 0.00 | 0.00 | 0.00 | 84 | 1020.5 |
| 20260508004254 | 1 | 0 | 0.0 | 0.0 | 0.00 | 0.00 | 0.00 | 83 | 1020.3 |
| 20260508003356 | 1 | 0 | 0.0 | 0.0 | 0.00 | 0.00 | 0.00 | 83 | 1020.3 |
| 20260508002243 | 1 | 0 | 0.0 | 0.0 | 0.00 | 0.00 | 0.00 | 82 | 1020.1 |
| 20260508001342 | 1 | 0 | 0.0 | 0.0 | 0.00 | 0.00 | 0.00 | 80 | 1020.1 |
| 20260508000443 | 1 | 0 | 0.0 | 0.0 | 0.00 | 0.00 | 0.00 | 80 | 1020.0 |
| 20260507235543 | 2 | 0 | 0.0 | 4.8 | 0.00 | 0.00 | 0.00 | 79 | 1020.0 |
| 20260507234642 | 2 | 0 | 0.0 | 3.2 | 0.00 | 0.00 | 0.00 | 78 | 1019.8 |
| 20260507233742 | 2 | 0 | 0.0 | 0.0 | 0.00 | 0.00 | 0.00 | 78 | 1019.8 |
| 20260507232842 | 2 | 0 | 0.0 | 1.6 | 0.00 | 0.00 | 0.00 | 78 | 1019.7 |
| 20260507232155 | 2 | 0 | 0.0 | 6.4 | 0.00 | 0.00 | 0.00 | 77 | 1019.6 |
| 20260507231252 | 2 | 0 | 0.0 | 0.0 | 0.00 | 0.00 | 0.00 | 76 | 1019.5 |
| 20260507225243 | 3 | 0 | 0.0 | 0.0 | 0.00 | 0.00 | 0.00 | 74 | 1019.3 |
| 20260507224342 | 3 | 0 | 0.0 | 0.0 | 0.00 | 0.00 | 0.00 | 74 | 1019.1 |
| 20260507223442 | 3 | 0 | 0.0 | 0.0 | 0.00 | 0.00 | 0.00 | 73 | 1019.0 |
| 20260507222542 | 3 | 0 | 0.0 | 0.0 | 0.00 | 0.00 | 0.00 | 73 | 1019.0 |
| 20260507221642 | 3 | 0 | 0.0 | 0.0 | 0.00 | 0.00 | 0.00 | 72 | 1018.9 |
| 20260507220742 | 3 | 0 | 0.0 | 0.0 | 0.00 | 0.00 | 0.00 | 71 | 1018.8 |
| 20260507215843 | 3 | 0 | 0.0 | 0.0 | 0.00 | 0.00 | 0.00 | 71 | 1018.7 |
| 20260507214942 | 3 | 0 | 0.0 | 0.0 | 0.00 | 0.00 | 0.00 | 70 | 1018.7 |
| 20260507214042 | 4 | 0 | 0.0 | 0.0 | 0.00 | 0.00 | 0.00 | 69 | 1018.6 |
| 20260507213142 | 4 | 0 | 0.0 | 0.0 | 0.00 | 0.00 | 0.00 | 68 | 1018.5 |
| 20260507212242 | 4 | 0 | 0.0 | 0.0 | 0.00 | 0.00 | 0.00 | 68 | 1018.4 |
| 20260507211342 | 4 | 0 | 0.0 | 11.3 | 0.00 | 0.00 | 0.00 | 67 | 1018.3 |
| 20260507210442 | 4 | 0 | 0.0 | 8.0 | 0.00 | 0.00 | 0.00 | 66 | 1018.2 |
| 20260507205542 | 5 | 286 | 1.6 | 11.3 | 0.00 | 0.00 | 0.00 | 65 | 1018.1 |
| 20260507204643 | 5 | 280 | 1.6 | 8.0 | 0.00 | 0.00 | 0.00 | 65 | 1018.0 |
| 20260507203742 | 5 | 0 | 0.0 | 6.4 | 0.00 | 0.00 | 0.00 | 65 | 1017.8 |
| 20260507202842 | 5 | 309 | 1.6 | 9.7 | 0.00 | 0.00 | 0.00 | 66 | 1017.7 |
| 20260507201943 | 4 | 281 | 1.6 | 9.7 | 0.00 | 0.00 | 0.00 | 66 | 1017.6 |
| 20260507201043 | 5 | 0 | 0.0 | 0.0 | 0.00 | 0.00 | 0.00 | 65 | 1017.5 |
| 20260507200142 | 5 | 0 | 0.0 | 0.0 | 0.00 | 0.00 | 0.00 | 63 | 1017.4 |
| 20260507195242 | 5 | 0 | 0.0 | 0.0 | 0.00 | 0.00 | 0.00 | 62 | 1017.3 |
| 20260507194343 | 5 | 0 | 0.0 | 1.6 | 0.00 | 0.00 | 0.00 | 61 | 1017.2 |
| 20260507193654 | 6 | 0 | 0.0 | 0.0 | 0.00 | 0.00 | 0.00 | 61 | 1017.1 |
| 20260507192544 | 6 | 0 | 0.0 | 0.0 | 0.00 | 0.00 | 0.00 | 60 | 1016.8 |
| 20260507191642 | 6 | 0 | 0.0 | 0.0 | 0.00 | 0.00 | 0.00 | 58 | 1016.7 |
| 20260507190742 | 7 | 0 | 0.0 | 0.0 | 0.00 | 0.00 | 0.00 | 57 | 1016.6 |
| 20260507190053 | 7 | 0 | 0.0 | 0.0 | 0.00 | 0.00 | 0.00 | 56 | 1016.5 |
| 20260507184943 | 7 | 0 | 0.0 | 1.6 | 0.00 | 0.00 | 0.00 | 56 | 1016.5 |
| 20260507184042 | 7 | 332 | 1.6 | 6.4 | 0.00 | 0.00 | 0.00 | 55 | 1016.4 |
| 20260507183355 | 7 | 334 | 3.2 | 14.5 | 0.00 | 0.00 | 0.00 | 55 | 1016.3 |
| 20260507182243 | 7 | 330 | 3.2 | 16.1 | 0.00 | 0.00 | 0.00 | 53 | 1016.3 |
| 20260507181342 | 8 | 329 | 4.8 | 17.7 | 0.00 | 0.00 | 0.00 | 52 | 1016.3 |
| 20260507180442 | 8 | 311 | 3.2 | 16.1 | 0.00 | 0.00 | 0.00 | 51 | 1016.1 |
| 20260507175542 | 9 | 322 | 6.4 | 24.1 | 0.00 | 0.00 | 0.00 | 47 | 1016.0 |
| 20260507174642 | 10 | 170 | 1.6 | 6.4 | 0.00 | 0.00 | 0.00 | 41 | 1015.5 |
| 20260507173954 | 10 | 278 | 1.6 | 8.0 | 0.00 | 0.00 | 0.00 | 41 | 1015.4 |
| 20260507172842 | 10 | 0 | 0.0 | 4.8 | 0.00 | 0.00 | 0.00 | 40 | 1015.4 |
| 20260507171943 | 10 | 0 | 0.0 | 6.4 | 0.00 | 0.00 | 0.00 | 40 | 1015.3 |
| 20260507171042 | 10 | 266 | 3.2 | 16.1 | 0.00 | 0.00 | 0.00 | 40 | 1015.4 |
| 20260507170142 | 10 | 0 | 0.0 | 9.7 | 0.00 | 0.00 | 0.00 | 39 | 1015.3 |
| 20260507165243 | 11 | 0 | 0.0 | 0.0 | 0.00 | 0.00 | 0.00 | 38 | 1015.2 |
| 20260507164342 | 11 | 247 | 1.6 | 11.3 | 0.00 | 0.00 | 0.00 | 37 | 1015.1 |
| 20260507163443 | 11 | 238 | 1.6 | 9.7 | 0.00 | 0.00 | 0.00 | 36 | 1015.0 |
| 20260507162542 | 11 | 258 | 1.6 | 6.4 | 0.00 | 0.00 | 0.00 | 35 | 1014.9 |
| 20260507161642 | 11 | 320 | 3.2 | 12.9 | 0.00 | 0.00 | 0.00 | 34 | 1014.7 |
| 20260507160742 | 11 | 328 | 3.2 | 19.3 | 0.00 | 0.00 | 0.00 | 35 | 1014.6 |
| 20260507155842 | 11 | 324 | 1.6 | 17.7 | 0.00 | 0.00 | 0.00 | 34 | 1014.6 |
| 20260507154942 | 12 | 0 | 0.0 | 6.4 | 0.00 | 0.00 | 0.00 | 31 | 1014.5 |
| 20260507154043 | 12 | 0 | 0.0 | 4.8 | 0.00 | 0.00 | 0.00 | 31 | 1014.4 |
| 20260507153142 | 12 | 0 | 0.0 | 6.4 | 0.00 | 0.00 | 0.00 | 31 | 1014.4 |
| 20260507152242 | 12 | 0 | 0.0 | 4.8 | 0.00 | 0.00 | 0.00 | 32 | 1014.3 |
| 20260507151342 | 12 | 75 | 1.6 | 6.4 | 0.00 | 0.00 | 0.00 | 35 | 1014.3 |
| 20260507150654 | 12 | 0 | 0.0 | 6.4 | 0.00 | 0.00 | 0.00 | 34 | 1014.3 |
| 20260507145542 | 11 | 0 | 0.0 | 0.0 | 0.00 | 0.00 | 0.00 | 34 | 1014.4 |
| 20260507144643 | 11 | 0 | 0.0 | 0.0 | 0.00 | 0.00 | 0.00 | 34 | 1014.3 |
| 20260507143742 | 12 | 0 | 0.0 | 0.0 | 0.00 | 0.00 | 0.00 | 34 | 1014.4 |
| 20260507142843 | 12 | 0 | 0.0 | 0.0 | 0.00 | 0.00 | 0.00 | 31 | 1014.4 |
| 20260507142156 | 12 | 0 | 0.0 | 3.2 | 0.00 | 0.00 | 0.00 | 35 | 1014.4 |
| 20260507141253 | 12 | 0 | 0.0 | 3.2 | 0.00 | 0.00 | 0.00 | 32 | 1014.3 |
| 20260507140143 | 12 | 0 | 0.0 | 3.2 | 0.00 | 0.00 | 0.00 | 32 | 1014.4 |
| 20260507135242 | 12 | 0 | 0.0 | 1.6 | 0.00 | 0.00 | 0.00 | 31 | 1014.4 |
| 20260507134342 | 12 | 0 | 0.0 | 9.7 | 0.00 | 0.00 | 0.00 | 32 | 1014.4 |
| 20260507133442 | 12 | 68 | 1.6 | 8.0 | 0.00 | 0.00 | 0.00 | 32 | 1014.4 |
| 20260507132542 | 12 | 0 | 0.0 | 8.0 | 0.00 | 0.00 | 0.00 | 32 | 1014.5 |
| 20260507131643 | 12 | 223 | 1.6 | 8.0 | 0.00 | 0.00 | 0.00 | 30 | 1014.4 |
| 20260507130954 | 12 | 0 | 0.0 | 8.0 | 0.00 | 0.00 | 0.00 | 30 | 1014.4 |
| 20260507125842 | 12 | 0 | 0.0 | 3.2 | 0.00 | 0.00 | 0.00 | 30 | 1014.5 |
| 20260507124942 | 13 | 0 | 0.0 | 4.8 | 0.00 | 0.00 | 0.00 | 30 | 1014.5 |
| 20260507124042 | 13 | 88 | 4.8 | 14.5 | 0.00 | 0.00 | 0.00 | 30 | 1014.4 |
| 20260507123142 | 14 | 114 | 3.2 | 12.9 | 0.00 | 0.00 | 0.00 | 31 | 1014.5 |
| 20260507122242 | 14 | 116 | 3.2 | 11.3 | 0.00 | 0.00 | 0.00 | 30 | 1014.5 |